Time;durP1;ratioP1;P1;durP2;ratioP2;P2;SDS_P1;SDS_P2;PMS_P1;PMS_P2;Temp;Humidity;BMP_temperature;BMP_pressure;BME280_temperature;BME280_humidity;BME280_pressure;Samples;Min_cycle;Max_cycle;Signal;HPM_P1;HPM_P2
2023/08/07 00:00:22;;;;;;;;;0.50;0.50;;;;;-146.67;100.00;57155.34;6362010;22;8714;-81
2023/08/07 00:02:48;;;;;;;;;3.50;1.25;;;;;-146.67;100.00;57155.34;6361726;22;8772;-81
2023/08/07 00:05:13;;;;;;;;;0.00;0.00;;;;;-146.67;100.00;57155.34;6362557;22;8806;-81
2023/08/07 00:07:39;;;;;;;;;1.50;0.75;;;;;-146.67;100.00;57155.34;6361120;22;8775;-81
2023/08/07 00:10:05;;;;;;;;;1.50;1.00;;;;;-146.67;100.00;57155.34;6362158;22;8740;-81
2023/08/07 00:12:30;;;;;;;;;2.25;1.00;;;;;-146.67;100.00;57155.34;6362229;22;8736;-81
2023/08/07 00:14:56;;;;;;;;;1.50;0.75;;;;;-146.67;100.00;57155.34;6359813;22;10359;-81
2023/08/07 00:17:21;;;;;;;;;3.25;0.50;;;;;-146.67;100.00;57155.34;6362379;22;8764;-81
2023/08/07 00:19:46;;;;;;;;;2.00;1.00;;;;;-146.67;100.00;57155.34;6361720;22;8798;-81
2023/08/07 00:22:12;;;;;;;;;0.00;0.00;;;;;-146.67;100.00;57155.34;6361557;22;8805;-81
2023/08/07 00:24:37;;;;;;;;;1.00;0.50;;;;;-146.67;100.00;57155.34;6361942;22;8745;-81
2023/08/07 00:27:03;;;;;;;;;1.00;1.00;;;;;-146.67;100.00;57155.34;6361745;22;8737;-81
2023/08/07 00:29:28;;;;;;;;;2.75;1.00;;;;;-146.67;100.00;57155.34;6385831;22;8763;-81
2023/08/07 00:31:53;;;;;;;;;3.75;1.00;;;;;-146.67;100.00;57155.34;6359556;22;8859;-81
2023/08/07 00:34:19;;;;;;;;;0.00;0.00;;;;;-146.67;100.00;57155.34;6360001;22;8753;-82
2023/08/07 00:36:44;;;;;;;;;0.00;0.00;;;;;-146.67;100.00;57155.34;6385631;22;9775;-81
2023/08/07 00:39:09;;;;;;;;;0.75;0.00;;;;;-146.67;100.00;57155.34;6359924;22;8745;-81
2023/08/07 00:41:35;;;;;;;;;0.00;0.00;;;;;-146.67;100.00;57155.34;6361722;22;8769;-82
2023/08/07 00:44:00;;;;;;;;;1.00;1.00;;;;;-146.67;100.00;57155.34;6361459;22;8721;-81
2023/08/07 00:46:27;;;;;;;;;0.25;0.25;;;;;-146.67;100.00;57155.34;6386553;22;10099;-82
2023/08/07 00:48:53;;;;;;;;;0.50;0.50;;;;;-146.67;100.00;57155.34;6360930;22;8702;-81
2023/08/07 00:51:23;;;;;;;;;0.00;0.00;;;;;-146.67;100.00;57155.34;6361057;22;10081;-81
2023/08/07 00:53:49;;;;;;;;;1.50;0.00;;;;;-146.67;100.00;57155.34;6361834;22;10064;-81
2023/08/07 00:56:15;;;;;;;;;1.00;1.00;;;;;-146.67;100.00;57155.34;6359519;22;10381;-81
2023/08/07 00:58:40;;;;;;;;;1.00;1.00;;;;;-146.67;100.00;57155.34;6361688;22;8722;-81
2023/08/07 01:01:06;;;;;;;;;2.75;1.00;;;;;-146.67;100.00;57155.34;6358885;22;9245;-80
2023/08/07 01:03:32;;;;;;;;;4.50;1.00;;;;;-146.67;100.00;57155.34;6359774;22;8844;-81
2023/08/07 01:05:57;;;;;;;;;0.50;0.00;;;;;-146.67;100.00;57155.34;6360941;22;8765;-81
2023/08/07 01:08:24;;;;;;;;;0.00;0.00;;;;;-146.67;100.00;57155.34;6359561;22;8760;-81
2023/08/07 01:11:02;;;;;;;;;1.00;1.00;;;;;-146.67;100.00;57155.34;6359474;22;8682;-81
2023/08/07 01:14:00;;;;;;;;;1.00;1.00;;;;;-146.67;100.00;57155.34;6386095;22;10292;-81
2023/08/07 01:16:36;;;;;;;;;1.50;0.00;;;;;-146.67;100.00;57155.34;6361329;22;10446;-81
2023/08/07 01:19:04;;;;;;;;;1.00;0.25;;;;;-146.67;100.00;57155.34;6361127;22;10354;-81
2023/08/07 01:21:31;;;;;;;;;2.00;1.00;;;;;-146.67;100.00;57155.34;6361085;22;10325;-81
2023/08/07 01:23:57;;;;;;;;;0.50;0.00;;;;;-146.67;100.00;57155.34;6386074;22;10365;-81
2023/08/07 01:26:22;;;;;;;;;0.25;0.25;;;;;-146.67;100.00;57155.34;6359587;22;10388;-81
2023/08/07 01:29:28;;;;;;;;;1.00;1.00;;;;;-146.67;100.00;57155.34;6361385;22;8745;-81
2023/08/07 01:31:57;;;;;;;;;1.00;0.00;;;;;-146.67;100.00;57155.34;6359264;22;8705;-81
2023/08/07 01:34:25;;;;;;;;;0.00;0.00;;;;;-146.67;100.00;57155.34;6360960;22;10303;-81
2023/08/07 01:36:53;;;;;;;;;1.00;1.00;;;;;-146.67;100.00;57155.34;6361914;22;10580;-81
2023/08/07 01:39:20;;;;;;;;;4.75;1.00;;;;;-146.67;100.00;57155.34;6362177;22;10396;-81
2023/08/07 01:41:46;;;;;;;;;1.00;1.00;;;;;-146.67;100.00;57155.34;6362635;22;10426;-81
2023/08/07 01:44:12;;;;;;;;;2.00;2.00;;;;;-146.67;100.00;57155.34;6360564;22;10428;-81
2023/08/07 01:46:38;;;;;;;;;2.25;1.00;;;;;-146.67;100.00;57155.34;6363052;22;10707;-81
2023/08/07 01:49:03;;;;;;;;;2.75;1.00;;;;;-146.67;100.00;57155.34;6360476;22;10454;-81
2023/08/07 01:51:29;;;;;;;;;3.00;1.50;;;;;-146.67;100.00;57155.34;6362247;22;8761;-81
2023/08/07 01:53:54;;;;;;;;;1.00;1.00;;;;;-146.67;100.00;57155.34;6362901;22;8827;-81
2023/08/07 01:56:19;;;;;;;;;3.50;1.00;;;;;-146.67;100.00;57155.34;6361844;22;8744;-80
2023/08/07 01:58:45;;;;;;;;;4.75;1.00;;;;;-146.67;100.00;57155.34;6362820;22;8749;-81
2023/08/07 02:01:10;;;;;;;;;2.50;1.00;;;;;-146.67;100.00;57155.34;6386634;22;8781;-80
2023/08/07 02:03:35;;;;;;;;;1.00;1.00;;;;;-146.67;100.00;57155.34;6362912;22;8771;-81
2023/08/07 02:06:01;;;;;;;;;3.25;1.25;;;;;-146.67;100.00;57155.34;6362390;22;8725;-80
2023/08/07 02:08:28;;;;;;;;;1.25;1.25;;;;;-146.67;100.00;57155.34;6362505;22;8661;-80
2023/08/07 02:10:53;;;;;;;;;1.50;0.75;;;;;-146.67;100.00;57155.34;6362172;22;10428;-80
2023/08/07 02:13:18;;;;;;;;;2.00;1.00;;;;;-146.67;100.00;57155.34;6362487;22;11285;-80
2023/08/07 02:15:44;;;;;;;;;2.25;1.00;;;;;-146.67;100.00;57155.34;6362559;22;8760;-79
2023/08/07 02:18:09;;;;;;;;;1.00;1.00;;;;;-146.67;100.00;57155.34;6362491;22;8817;-80
2023/08/07 02:20:35;;;;;;;;;4.50;1.00;;;;;-146.67;100.00;57155.34;6361326;22;8784;-81
2023/08/07 02:23:00;;;;;;;;;1.00;1.00;;;;;-146.67;100.00;57155.34;6387028;22;8737;-81
2023/08/07 02:25:25;;;;;;;;;1.50;0.50;;;;;-146.67;100.00;57155.34;6359852;22;9914;-80
2023/08/07 02:27:51;;;;;;;;;2.00;1.75;;;;;-146.67;100.00;57155.34;6360976;22;8763;-81
2023/08/07 02:30:16;;;;;;;;;0.50;0.50;;;;;-146.67;100.00;57155.34;6387283;22;8787;-81
2023/08/07 02:32:44;;;;;;;;;0.25;0.25;;;;;-146.67;100.00;57155.34;6363036;22;8772;-81
2023/08/07 02:35:09;;;;;;;;;3.00;1.00;;;;;-146.67;100.00;57155.34;6362749;22;8685;-81
2023/08/07 02:37:34;;;;;;;;;2.00;2.00;;;;;-146.67;100.00;57155.34;6359686;22;10539;-81
2023/08/07 02:40:00;;;;;;;;;1.75;1.75;;;;;-146.67;100.00;57155.34;6362634;22;8745;-80
2023/08/07 02:42:25;;;;;;;;;1.75;0.00;;;;;-146.67;100.00;57155.34;6362384;22;8828;-81
2023/08/07 02:44:50;;;;;;;;;3.25;1.00;;;;;-146.67;100.00;57155.34;6362883;22;8721;-81
2023/08/07 02:47:16;;;;;;;;;1.00;1.00;;;;;-146.67;100.00;57155.34;6362603;22;8767;-81
2023/08/07 02:49:41;;;;;;;;;1.00;1.00;;;;;-146.67;100.00;57155.34;6362122;22;8773;-81
2023/08/07 02:52:07;;;;;;;;;1.50;1.50;;;;;-146.67;100.00;57155.34;6362273;22;8732;-81
2023/08/07 02:54:32;;;;;;;;;1.00;1.00;;;;;-146.67;100.00;57155.34;6361471;22;8743;-81
2023/08/07 02:56:57;;;;;;;;;1.00;1.00;;;;;-146.67;100.00;57155.34;6362390;22;8741;-81
2023/08/07 02:59:23;;;;;;;;;2.00;1.00;;;;;-146.67;100.00;57155.34;6387178;22;8811;-81
2023/08/07 03:01:50;;;;;;;;;3.25;2.00;;;;;-146.67;100.00;57155.34;6362068;22;8741;-81
2023/08/07 03:04:15;;;;;;;;;1.00;1.00;;;;;-146.67;100.00;57155.34;6362186;22;9531;-81
2023/08/07 03:06:40;;;;;;;;;1.00;1.00;;;;;-146.67;100.00;57155.34;6361536;22;10465;-81
2023/08/07 03:09:06;;;;;;;;;1.25;1.25;;;;;-146.67;100.00;57155.34;6359934;22;8737;-80
2023/08/07 03:11:31;;;;;;;;;4.00;0.25;;;;;-146.67;100.00;57155.34;6386731;22;8756;-81
2023/08/07 03:13:57;;;;;;;;;0.75;0.75;;;;;-146.67;100.00;57155.34;6362708;22;8927;-80
2023/08/07 03:16:22;;;;;;;;;2.00;0.75;;;;;-146.67;100.00;57155.34;6362446;22;8764;-80
2023/08/07 03:18:47;;;;;;;;;2.25;1.00;;;;;-146.67;100.00;57155.34;6362275;22;8737;-81
2023/08/07 03:21:13;;;;;;;;;1.00;1.00;;;;;-146.67;100.00;57155.34;6384904;22;8814;-81
2023/08/07 03:23:38;;;;;;;;;1.00;1.00;;;;;-146.67;100.00;57155.34;6362059;22;8749;-81
2023/08/07 03:26:11;;;;;;;;;1.00;1.00;;;;;-146.67;100.00;57155.34;6360627;22;8788;-80
2023/08/07 03:28:37;;;;;;;;;0.00;0.00;;;;;-146.67;100.00;57155.34;6360377;22;8748;-81
2023/08/07 03:31:03;;;;;;;;;1.00;1.00;;;;;-146.67;100.00;57155.34;6362278;22;10079;-80
2023/08/07 03:33:28;;;;;;;;;2.25;1.00;;;;;-146.67;100.00;57155.34;6360175;22;10901;-80
2023/08/07 03:35:54;;;;;;;;;1.75;1.75;;;;;-146.67;100.00;57155.34;6361703;22;8761;-80
2023/08/07 03:38:19;;;;;;;;;2.00;2.00;;;;;-146.67;100.00;57155.34;6386267;22;8733;-80
2023/08/07 03:40:45;;;;;;;;;0.75;0.00;;;;;-146.67;100.00;57155.34;6362124;22;8749;-81
2023/08/07 03:43:10;;;;;;;;;1.50;1.00;;;;;-146.67;100.00;57155.34;6362461;22;8725;-80
2023/08/07 03:45:36;;;;;;;;;1.25;1.00;;;;;-146.67;100.00;57155.34;6360269;22;8741;-80
2023/08/07 03:48:01;;;;;;;;;2.00;1.00;;;;;-146.67;100.00;57155.34;6362244;22;8756;-81
2023/08/07 03:50:27;;;;;;;;;3.00;1.00;;;;;-146.67;100.00;57155.34;6359778;22;8749;-80
2023/08/07 03:52:52;;;;;;;;;3.00;2.00;;;;;-146.67;100.00;57155.34;6361248;22;8842;-80
2023/08/07 03:55:18;;;;;;;;;1.00;1.00;;;;;-146.67;100.00;57155.34;6387004;22;8741;-81
2023/08/07 03:57:43;;;;;;;;;2.25;0.50;;;;;-146.67;100.00;57155.34;6362291;22;8812;-81
2023/08/07 04:00:09;;;;;;;;;5.25;1.00;;;;;-146.67;100.00;57155.34;6362595;22;8729;-80
2023/08/07 04:02:35;;;;;;;;;1.00;1.00;;;;;-146.67;100.00;57155.34;6362270;22;8736;-81
2023/08/07 04:05:00;;;;;;;;;2.25;1.00;;;;;-146.67;100.00;57155.34;6386616;22;9207;-81
2023/08/07 04:07:26;;;;;;;;;3.00;1.00;;;;;-146.67;100.00;57155.34;6386177;22;8802;-80
2023/08/07 04:09:51;;;;;;;;;1.00;0.00;;;;;-146.67;100.00;57155.34;6362491;22;8788;-80
2023/08/07 04:12:16;;;;;;;;;2.00;0.00;;;;;-146.67;100.00;57155.34;6362651;22;8851;-80
2023/08/07 04:14:42;;;;;;;;;3.00;2.00;;;;;-146.67;100.00;57155.34;6362512;22;8814;-81
2023/08/07 04:17:07;;;;;;;;;2.75;1.00;;;;;-146.67;100.00;57155.34;6361494;22;8793;-80
2023/08/07 04:19:32;;;;;;;;;6.25;2.00;;;;;-146.67;100.00;57155.34;6361362;22;8875;-81
2023/08/07 04:21:58;;;;;;;;;2.50;1.25;;;;;-146.67;100.00;57155.34;6360037;22;8753;-81
2023/08/07 04:24:23;;;;;;;;;1.00;1.00;;;;;-146.67;100.00;57155.34;6359608;22;8773;-81
2023/08/07 04:26:49;;;;;;;;;1.75;1.75;;;;;-146.67;100.00;57155.34;6359897;22;8772;-80
2023/08/07 04:29:14;;;;;;;;;0.75;0.00;;;;;-146.67;100.00;57155.34;6386732;22;8763;-81
2023/08/07 04:31:39;;;;;;;;;1.00;1.00;;;;;-146.67;100.00;57155.34;6360272;22;9985;-80
2023/08/07 04:34:05;;;;;;;;;2.00;1.75;;;;;-146.67;100.00;57155.34;6361862;22;8811;-80
2023/08/07 04:36:30;;;;;;;;;1.75;1.00;;;;;-146.67;100.00;57155.34;6361359;22;8737;-80
2023/08/07 04:38:56;;;;;;;;;4.50;1.00;;;;;-146.67;100.00;57155.34;6362223;22;8725;-81
2023/08/07 04:41:21;;;;;;;;;2.75;1.00;;;;;-146.67;100.00;57155.34;6362332;22;8764;-81
2023/08/07 04:43:48;;;;;;;;;2.00;1.00;;;;;-146.67;100.00;57155.34;6362471;22;8741;-81
2023/08/07 04:46:14;;;;;;;;;5.50;3.00;;;;;-146.67;100.00;57155.34;6361933;22;8709;-81
2023/08/07 04:48:40;;;;;;;;;3.00;1.00;;;;;-146.67;100.00;57155.34;6360092;22;10468;-81
2023/08/07 04:51:05;;;;;;;;;2.50;1.00;;;;;-146.67;100.00;57155.34;6360254;22;10754;-81
2023/08/07 04:53:30;;;;;;;;;0.75;0.75;;;;;-146.67;100.00;57155.34;6362233;22;8738;-81
2023/08/07 04:55:56;;;;;;;;;3.00;2.00;;;;;-146.67;100.00;57155.34;6386651;22;8742;-80
2023/08/07 04:58:21;;;;;;;;;3.00;2.00;;;;;-146.67;100.00;57155.34;6361743;22;8820;-81
2023/08/07 05:00:47;;;;;;;;;8.75;1.25;;;;;-146.67;100.00;57155.34;6361619;22;9418;-81
2023/08/07 05:03:13;;;;;;;;;2.75;2.00;;;;;-146.67;100.00;57155.34;6361461;22;8820;-82
2023/08/07 05:05:38;;;;;;;;;3.00;2.00;;;;;-146.67;100.00;57155.34;6361258;22;9162;-78
2023/08/07 05:08:04;;;;;;;;;6.50;3.25;;;;;-146.67;100.00;57155.34;6361078;22;9444;-80
2023/08/07 05:10:29;;;;;;;;;1.75;1.00;;;;;-146.67;100.00;57155.34;6361059;22;8756;-81
2023/08/07 05:12:55;;;;;;;;;6.50;4.00;;;;;-146.67;100.00;57155.34;6362629;22;8745;-80
2023/08/07 05:15:25;;;;;;;;;1.50;1.50;;;;;-146.67;100.00;57155.34;6362699;22;8709;-82
2023/08/07 05:17:51;;;;;;;;;2.00;2.00;;;;;-146.67;100.00;57155.34;6363500;22;10663;-82
2023/08/07 05:20:17;;;;;;;;;9.75;2.50;;;;;-146.67;100.00;57155.34;6361605;22;11483;-82
2023/08/07 05:22:43;;;;;;;;;3.50;2.00;;;;;-146.67;100.00;57155.34;6362984;22;10704;-81
2023/08/07 05:25:09;;;;;;;;;7.00;3.00;;;;;-146.67;100.00;57155.34;6363645;22;10651;-82
2023/08/07 05:27:35;;;;;;;;;5.00;3.00;;;;;-146.67;100.00;57155.34;6363219;22;8755;-83
2023/08/07 05:30:01;;;;;;;;;4.75;4.25;;;;;-146.67;100.00;57155.34;6362994;22;8717;-83
2023/08/07 05:32:26;;;;;;;;;6.00;6.00;;;;;-146.67;100.00;57155.34;6362486;22;10661;-83
2023/08/07 05:34:52;;;;;;;;;3.75;3.75;;;;;-146.67;100.00;57155.34;6362441;22;8729;-82
2023/08/07 05:37:17;;;;;;;;;6.75;5.75;;;;;-146.67;100.00;57155.34;6362138;22;8745;-82
2023/08/07 05:39:43;;;;;;;;;4.00;4.00;;;;;-146.67;100.00;57155.34;6362997;22;8717;-82
2023/08/07 05:42:10;;;;;;;;;10.25;5.50;;;;;-146.67;100.00;57155.34;6362740;22;8824;-82
2023/08/07 05:44:35;;;;;;;;;6.25;5.25;;;;;-146.67;100.00;57155.34;6362316;22;8721;-82
2023/08/07 05:47:01;;;;;;;;;5.00;5.00;;;;;-146.67;100.00;57155.34;6362527;22;10677;-83
2023/08/07 05:49:26;;;;;;;;;8.00;5.00;;;;;-146.67;100.00;57155.34;6361496;22;8724;-82
2023/08/07 05:51:52;;;;;;;;;3.75;3.75;;;;;-146.67;100.00;57155.34;6362527;22;8741;-82
2023/08/07 05:54:25;;;;;;;;;8.25;6.75;;;;;-146.67;100.00;57155.34;6362529;22;8806;-83
2023/08/07 05:56:50;;;;;;;;;7.00;4.00;;;;;-146.67;100.00;57155.34;6362975;22;8733;-81
2023/08/07 05:59:16;;;;;;;;;7.75;5.25;;;;;-146.67;100.00;57155.34;6362559;22;11441;-83
2023/08/07 06:01:41;;;;;;;;;8.75;8.00;;;;;-146.67;100.00;57155.34;6359869;22;8815;-83
2023/08/07 06:04:06;;;;;;;;;9.50;4.75;;;;;-146.67;100.00;57155.34;6360219;22;8768;-83
2023/08/07 06:06:34;;;;;;;;;12.25;6.75;;;;;-146.67;100.00;57155.34;6362220;22;8729;-84
2023/08/07 06:09:00;;;;;;;;;12.25;6.00;;;;;-146.67;100.00;57155.34;6363359;22;8721;-83
2023/08/07 06:11:25;;;;;;;;;7.25;5.00;;;;;-146.67;100.00;57155.34;6362809;22;11424;-83
2023/08/07 06:13:51;;;;;;;;;5.75;5.75;;;;;-146.67;100.00;57155.34;6387392;22;8753;-84
2023/08/07 06:16:16;;;;;;;;;10.50;8.25;;;;;-146.67;100.00;57155.34;6362641;22;8749;-83
2023/08/07 06:18:41;;;;;;;;;11.00;9.25;;;;;-146.67;100.00;57155.34;6385816;22;9903;-83
2023/08/07 06:21:07;;;;;;;;;9.00;7.00;;;;;-146.67;100.00;57155.34;6358874;22;8874;-84
2023/08/07 06:23:35;;;;;;;;;8.25;7.00;;;;;-146.67;100.00;57155.34;6361734;22;8729;-83
2023/08/07 06:26:04;;;;;;;;;11.50;8.50;;;;;-146.67;100.00;57155.34;6360806;22;8752;-83
2023/08/07 06:28:30;;;;;;;;;10.75;9.75;;;;;-146.67;100.00;57155.34;6359826;22;10598;-84
2023/08/07 06:31:04;;;;;;;;;7.25;7.00;;;;;-146.67;100.00;57155.34;6360881;22;10534;-84
2023/08/07 06:33:30;;;;;;;;;15.50;11.50;;;;;-146.67;100.00;57155.34;6360379;22;11462;-84
2023/08/07 06:35:56;;;;;;;;;8.75;7.00;;;;;-146.67;100.00;57155.34;6362358;22;10955;-83
2023/08/07 06:38:22;;;;;;;;;10.00;7.75;;;;;-146.67;100.00;57155.34;6361684;22;10864;-84
2023/08/07 06:40:47;;;;;;;;;9.00;9.00;;;;;-146.67;100.00;57155.34;6362267;22;10829;-83
2023/08/07 06:43:12;;;;;;;;;10.00;8.50;;;;;-146.67;100.00;57155.34;6360563;22;8741;-83
2023/08/07 06:45:38;;;;;;;;;10.50;7.00;;;;;-146.67;100.00;57155.34;6362422;22;8729;-83
2023/08/07 06:48:03;;;;;;;;;9.25;8.25;;;;;-146.67;100.00;57155.34;6386358;22;10935;-83
2023/08/07 06:50:29;;;;;;;;;10.75;7.75;;;;;-146.67;100.00;57155.34;6362282;22;8725;-83
2023/08/07 06:52:55;;;;;;;;;7.00;6.00;;;;;-146.67;100.00;57155.34;6361841;22;8848;-83
2023/08/07 06:55:20;;;;;;;;;10.00;6.75;;;;;-146.67;100.00;57155.34;6363025;22;8886;-83
2023/08/07 06:57:46;;;;;;;;;9.50;7.75;;;;;-146.67;100.00;57155.34;6362415;22;11674;-83
2023/08/07 07:00:11;;;;;;;;;9.50;8.50;;;;;-146.67;100.00;57155.34;6360415;22;8775;-84
2023/08/07 07:02:37;;;;;;;;;13.00;8.00;;;;;-146.67;100.00;57155.34;6361739;22;8769;-83
2023/08/07 07:05:04;;;;;;;;;8.75;7.00;;;;;-146.67;100.00;57155.34;6386950;22;8764;-84
2023/08/07 07:07:29;;;;;;;;;12.75;7.75;;;;;-146.67;100.00;57155.34;6359658;22;10111;-84
2023/08/07 07:09:55;;;;;;;;;7.50;6.25;;;;;-146.67;100.00;57155.34;6362164;22;10693;-82
2023/08/07 07:12:20;;;;;;;;;9.00;8.00;;;;;-146.67;100.00;57155.34;6362475;22;8729;-82
2023/08/07 07:14:45;;;;;;;;;12.25;7.00;;;;;-146.67;100.00;57155.34;6360333;22;8741;-83
2023/08/07 07:17:11;;;;;;;;;12.75;8.25;;;;;-146.67;100.00;57155.34;6362260;22;8840;-82
2023/08/07 07:19:36;;;;;;;;;7.50;7.50;;;;;-146.67;100.00;57155.34;6362125;22;8741;-82
2023/08/07 07:22:01;;;;;;;;;7.50;7.50;;;;;-146.67;100.00;57155.34;6359329;22;8769;-82
2023/08/07 07:24:27;;;;;;;;;11.75;8.00;;;;;-146.67;100.00;57155.34;6360850;22;8917;-83
2023/08/07 07:26:52;;;;;;;;;10.00;6.25;;;;;-146.67;100.00;57155.34;6362506;22;8740;-83
2023/08/07 07:29:18;;;;;;;;;10.00;9.00;;;;;-146.67;100.00;57155.34;6360664;22;8753;-81
2023/08/07 07:31:44;;;;;;;;;11.75;8.00;;;;;-146.67;100.00;57155.34;6362293;22;8658;-81
2023/08/07 07:34:09;;;;;;;;;5.50;4.25;;;;;-146.67;100.00;57155.34;6386951;22;10589;-82
2023/08/07 07:36:34;;;;;;;;;6.00;6.00;;;;;-146.67;100.00;57155.34;6362242;22;9740;-82
2023/08/07 07:39:00;;;;;;;;;7.25;7.00;;;;;-146.67;100.00;57155.34;6362447;22;8870;-83
2023/08/07 07:41:25;;;;;;;;;7.00;5.25;;;;;-146.67;100.00;57155.34;6386411;22;8757;-82
2023/08/07 07:43:51;;;;;;;;;6.00;6.00;;;;;-146.67;100.00;57155.34;6362198;22;9370;-83
2023/08/07 07:46:16;;;;;;;;;4.00;3.00;;;;;-146.67;100.00;57155.34;6361262;22;8867;-83
2023/08/07 07:48:42;;;;;;;;;8.75;5.50;;;;;-146.67;100.00;57155.34;6386979;22;8838;-83
2023/08/07 07:51:08;;;;;;;;;7.25;6.00;;;;;-146.67;100.00;57155.34;6385431;22;8717;-82
2023/08/07 07:53:34;;;;;;;;;6.00;6.00;;;;;-146.67;100.00;57155.34;6362294;22;9998;-84
2023/08/07 07:55:59;;;;;;;;;10.50;8.50;;;;;-146.67;100.00;57155.34;6361915;22;8747;-84
2023/08/07 07:58:25;;;;;;;;;5.75;5.00;;;;;-146.67;100.00;57155.34;6386744;22;8760;-83
2023/08/07 08:00:53;;;;;;;;;8.50;7.00;;;;;-146.67;100.00;57155.34;6361822;22;8746;-83
2023/08/07 08:03:20;;;;;;;;;4.25;4.00;;;;;-146.67;100.00;57155.34;6386905;22;9651;-83
2023/08/07 08:05:46;;;;;;;;;4.00;4.00;;;;;-146.67;100.00;57155.34;6362121;22;11340;-84
2023/08/07 08:08:11;;;;;;;;;5.25;4.25;;;;;-146.67;100.00;57155.34;6361580;22;10222;-83
2023/08/07 08:10:37;;;;;;;;;5.25;4.25;;;;;-146.67;100.00;57155.34;6362381;22;10240;-83
2023/08/07 08:13:03;;;;;;;;;6.00;5.25;;;;;-146.67;100.00;57155.34;6361992;22;8745;-83
2023/08/07 08:15:29;;;;;;;;;7.00;4.25;;;;;-146.67;100.00;57155.34;6361940;22;8699;-81
2023/08/07 08:17:55;;;;;;;;;7.25;4.25;;;;;-146.67;100.00;57155.34;6360112;22;10062;-84
2023/08/07 08:20:21;;;;;;;;;3.50;3.50;;;;;-146.67;100.00;57155.34;6385201;22;10065;-81
2023/08/07 08:22:47;;;;;;;;;5.75;4.75;;;;;-146.67;100.00;57155.34;6361217;22;8799;-82
2023/08/07 08:25:13;;;;;;;;;5.00;4.00;;;;;-146.67;100.00;57155.34;6359761;22;11371;-82
2023/08/07 08:27:39;;;;;;;;;3.25;3.25;;;;;-146.67;100.00;57155.34;6359947;22;8830;-82
2023/08/07 08:30:05;;;;;;;;;6.00;5.00;;;;;-146.67;100.00;57155.34;6361316;22;10123;-83
2023/08/07 08:32:31;;;;;;;;;4.00;4.00;;;;;-146.67;100.00;57155.34;6359767;22;10078;-85
2023/08/07 08:34:56;;;;;;;;;3.75;3.75;;;;;-146.67;100.00;57155.34;6386642;22;10283;-86
2023/08/07 08:37:22;;;;;;;;;6.00;5.00;;;;;-146.67;100.00;57155.34;6361201;22;8756;-83
2023/08/07 08:39:48;;;;;;;;;5.50;4.00;;;;;-146.67;100.00;57155.34;6362180;22;9516;-80
2023/08/07 08:42:14;;;;;;;;;6.25;5.50;;;;;-146.67;100.00;57155.34;6385622;22;8851;-79
2023/08/07 08:44:40;;;;;;;;;7.00;5.75;;;;;-146.67;100.00;57155.34;6361582;22;11309;-80
2023/08/07 08:47:08;;;;;;;;;7.25;4.00;;;;;-146.67;100.00;57155.34;6360175;22;10184;-80
2023/08/07 08:49:45;;;;;;;;;3.25;3.25;;;;;-146.67;100.00;57155.34;6359150;22;10152;-82
2023/08/07 08:52:12;;;;;;;;;2.75;2.50;;;;;-146.67;100.00;57155.34;6361341;22;9788;-81
2023/08/07 08:54:38;;;;;;;;;3.75;3.25;;;;;-146.67;100.00;57155.34;6360030;22;10246;-79
2023/08/07 08:57:05;;;;;;;;;3.50;3.50;;;;;-146.67;100.00;57155.34;6361824;22;9999;-82
2023/08/07 08:59:30;;;;;;;;;3.75;3.75;;;;;-146.67;100.00;57155.34;6361329;22;9846;-83
2023/08/07 09:01:56;;;;;;;;;5.00;5.00;;;;;-146.67;100.00;57155.34;6361175;22;10055;-82
2023/08/07 09:04:21;;;;;;;;;5.50;3.75;;;;;-146.67;100.00;57155.34;6361180;22;8775;-83
2023/08/07 09:06:47;;;;;;;;;3.00;3.00;;;;;-146.67;100.00;57155.34;6385843;22;8749;-83
2023/08/07 09:09:14;;;;;;;;;2.50;1.00;;;;;-146.67;100.00;57155.34;6386394;22;8871;-84
2023/08/07 09:11:44;;;;;;;;;4.50;4.25;;;;;-146.67;100.00;57155.34;6358762;22;8736;-84
2023/08/07 09:14:15;;;;;;;;;5.75;2.25;;;;;-146.67;100.00;57155.34;6385954;22;10204;-84
2023/08/07 09:16:40;;;;;;;;;3.00;3.00;;;;;-146.67;100.00;57155.34;6361133;22;9915;-84
2023/08/07 09:19:06;;;;;;;;;4.00;2.00;;;;;-146.67;100.00;57155.34;6386001;22;9605;-84
2023/08/07 09:21:32;;;;;;;;;3.25;3.25;;;;;-146.67;100.00;57155.34;6356921;22;8777;-84
2023/08/07 09:23:57;;;;;;;;;5.75;2.75;;;;;-146.67;100.00;57155.34;6385716;22;9722;-84
2023/08/07 09:26:24;;;;;;;;;2.00;2.00;;;;;-146.67;100.00;57155.34;6358814;22;8838;-84
2023/08/07 09:28:53;;;;;;;;;3.00;2.25;;;;;-146.67;100.00;57155.34;6358991;22;8678;-84
2023/08/07 09:31:19;;;;;;;;;3.25;2.00;;;;;-146.67;100.00;57155.34;6359149;22;9849;-83
2023/08/07 09:33:47;;;;;;;;;4.75;3.00;;;;;-146.67;100.00;57155.34;6360466;22;9979;-84
2023/08/07 09:36:12;;;;;;;;;4.00;2.75;;;;;-146.67;100.00;57155.34;6358840;22;9845;-83
2023/08/07 09:38:38;;;;;;;;;2.50;2.50;;;;;-146.67;100.00;57155.34;6359297;22;10072;-83
2023/08/07 09:41:04;;;;;;;;;4.00;4.00;;;;;-146.67;100.00;57155.34;6359164;22;8783;-84
2023/08/07 09:43:33;;;;;;;;;4.25;3.50;;;;;-146.67;100.00;57155.34;6385880;22;9824;-84
2023/08/07 09:46:05;;;;;;;;;2.00;2.00;;;;;-146.67;100.00;57155.34;6361088;22;10871;-84
2023/08/07 09:48:33;;;;;;;;;2.00;1.25;;;;;-146.67;100.00;57155.34;6358687;22;9744;-84
2023/08/07 09:51:02;;;;;;;;;3.25;2.75;;;;;-146.67;100.00;57155.34;6385010;22;9661;-83
2023/08/07 09:53:27;;;;;;;;;3.00;2.00;;;;;-146.67;100.00;57155.34;6360514;22;10565;-80
2023/08/07 09:55:56;;;;;;;;;3.50;2.50;;;;;-146.67;100.00;57155.34;6358448;22;9589;-82
2023/08/07 09:58:23;;;;;;;;;2.50;2.50;;;;;-146.67;100.00;57155.34;6386237;22;8688;-85
2023/08/07 10:00:49;;;;;;;;;2.00;2.00;;;;;-146.67;100.00;57155.34;6362184;22;9726;-81
2023/08/07 10:03:16;;;;;;;;;4.00;2.00;;;;;-146.67;100.00;57155.34;6360579;22;9905;-85
2023/08/07 10:05:42;;;;;;;;;1.00;1.00;;;;;-146.67;100.00;57155.34;6387023;22;9436;-85
2023/08/07 10:08:10;;;;;;;;;1.50;1.50;;;;;-146.67;100.00;57155.34;6362256;22;9516;-86
2023/08/07 10:10:37;;;;;;;;;2.00;2.00;;;;;-146.67;100.00;57155.34;6359810;22;10182;-85
2023/08/07 10:13:03;;;;;;;;;1.25;1.25;;;;;-146.67;100.00;57155.34;6360937;22;9972;-85
2023/08/07 10:15:30;;;;;;;;;2.00;2.00;;;;;-146.67;100.00;57155.34;6360837;22;9636;-85
2023/08/07 10:17:56;;;;;;;;;3.00;3.00;;;;;-146.67;100.00;57155.34;6360212;22;9499;-84
2023/08/07 10:20:22;;;;;;;;;4.50;1.00;;;;;-146.67;100.00;57155.34;6361987;22;9837;-81
2023/08/07 10:22:48;;;;;;;;;4.00;3.50;;;;;-146.67;100.00;57155.34;6359418;22;10029;-81
2023/08/07 10:25:19;;;;;;;;;3.00;3.00;;;;;-146.67;100.00;57155.34;6360215;22;8718;-82
2023/08/07 10:27:46;;;;;;;;;2.50;2.00;;;;;-146.67;100.00;57155.34;6361869;22;9535;-85
2023/08/07 10:30:15;;;;;;;;;4.00;1.25;;;;;-146.67;100.00;57155.34;6360030;22;9530;-85
2023/08/07 10:32:43;;;;;;;;;3.25;2.00;;;;;-146.67;100.00;57155.34;6360088;22;10312;-85
2023/08/07 10:35:08;;;;;;;;;2.50;1.50;;;;;-146.67;100.00;57155.34;6360627;22;9652;-82
2023/08/07 10:37:45;;;;;;;;;2.00;2.00;;;;;-146.67;100.00;57155.34;6361635;22;10327;-79
2023/08/07 10:40:12;;;;;;;;;2.75;2.00;;;;;-146.67;100.00;57155.34;6359871;22;8730;-81
2023/08/07 10:42:59;;;;;;;;;4.00;2.00;;;;;-146.67;100.00;57155.34;6386125;22;10133;-81
2023/08/07 10:45:27;;;;;;;;;2.75;2.75;;;;;-146.67;100.00;57155.34;6386632;22;9295;-80
2023/08/07 10:48:05;;;;;;;;;3.50;2.00;;;;;-146.67;100.00;57155.34;6362632;22;9506;-81
2023/08/07 10:50:54;;;;;;;;;3.00;2.00;;;;;-146.67;100.00;57155.34;6359864;22;9387;-81
2023/08/07 10:53:27;;;;;;;;;2.75;2.00;;;;;-146.67;100.00;57155.34;6343033;22;10166;-81
2023/08/07 10:55:54;;;;;;;;;3.75;3.75;;;;;-146.67;100.00;57155.34;6360250;22;9684;-81
2023/08/07 10:58:24;;;;;;;;;5.00;2.33;;;;;-146.67;100.00;57155.34;6362916;22;9491;-81
2023/08/07 11:00:51;;;;;;;;;1.33;1.33;;;;;-146.67;100.00;57155.34;6362712;22;9375;-80
2023/08/07 11:03:26;;;;;;;;;3.00;2.00;;;;;-146.67;100.00;57155.34;6362868;22;9371;-80
2023/08/07 11:05:52;;;;;;;;;3.00;2.00;;;;;-146.67;100.00;57155.34;6362640;22;9378;-80
2023/08/07 11:08:23;;;;;;;;;2.33;2.00;;;;;-146.67;100.00;57155.34;6361101;22;9383;-81
2023/08/07 11:10:51;;;;;;;;;3.00;3.00;;;;;-146.67;100.00;57155.34;6362765;22;8820;-81